Time;durP1;ratioP1;P1;durP2;ratioP2;P2;SDS_P1;SDS_P2;PMS_P1;PMS_P2;Temp;Humidity;BMP_temperature;BMP_pressure;BME280_temperature;BME280_humidity;BME280_pressure;Samples;Min_cycle;Max_cycle;Signal;HPM_P1;HPM_P2
2023/12/20 00:01:31;;;;;;;1.93;1.40;;;;;;;7.13;94.09;95536.16;5026126;28;20206;-79
2023/12/20 00:03:56;;;;;;;1.67;0.90;;;;;;;7.11;94.17;95527.72;5031531;28;20233;-78
2023/12/20 00:06:22;;;;;;;4.13;1.90;;;;;;;7.13;94.16;95517.25;5026838;28;20210;-79
2023/12/20 00:08:47;;;;;;;3.30;1.27;;;;;;;7.12;94.16;95523.38;5030145;28;20197;-79
2023/12/20 00:11:13;;;;;;;3.10;1.40;;;;;;;7.01;95.17;95506.19;5009608;28;20237;-79
2023/12/20 00:13:38;;;;;;;2.20;1.17;;;;;;;7.04;94.66;95509.31;5028311;28;20282;-79
2023/12/20 00:16:04;;;;;;;1.20;0.90;;;;;;;6.89;95.60;95507.19;5034925;28;20217;-79
2023/12/20 00:18:29;;;;;;;1.33;1.00;;;;;;;6.86;96.18;95503.09;5032101;28;20194;-79
2023/12/20 00:20:54;;;;;;;0.73;0.70;;;;;;;6.90;95.03;95491.59;5027215;28;20679;-79
2023/12/20 00:23:20;;;;;;;1.13;0.70;;;;;;;6.85;94.92;95495.47;5028052;28;20213;-79
2023/12/20 00:25:45;;;;;;;1.67;0.77;;;;;;;6.93;94.95;95493.09;5028501;28;20210;-79
2023/12/20 00:28:10;;;;;;;0.93;0.80;;;;;;;6.91;94.91;95495.00;5030516;28;20190;-79
2023/12/20 00:30:36;;;;;;;0.50;0.50;;;;;;;6.80;95.13;95498.44;5027728;28;20174;-78
2023/12/20 00:33:02;;;;;;;0.63;0.63;;;;;;;6.74;95.21;95501.53;5029544;28;20227;-78
2023/12/20 00:35:27;;;;;;;0.70;0.70;;;;;;;6.78;95.19;95492.56;5024067;28;20235;-79
2023/12/20 00:37:53;;;;;;;2.07;0.70;;;;;;;6.79;95.20;95497.59;5018580;28;20685;-79
2023/12/20 00:40:18;;;;;;;0.60;0.60;;;;;;;6.63;95.90;95497.25;5030765;28;20703;-79
2023/12/20 00:42:43;;;;;;;0.63;0.63;;;;;;;6.50;96.24;95484.50;5032221;28;20187;-79
2023/12/20 00:45:09;;;;;;;0.40;0.40;;;;;;;6.63;95.27;95489.50;5028754;28;20203;-78
2023/12/20 00:47:34;;;;;;;0.80;0.67;;;;;;;6.68;94.94;95495.09;5028077;28;20277;-78
2023/12/20 00:50:00;;;;;;;1.80;0.60;;;;;;;6.50;95.87;95494.81;5035624;28;20236;-79
2023/12/20 00:52:25;;;;;;;0.70;0.70;;;;;;;6.58;95.65;95490.81;5029662;28;20191;-78
2023/12/20 00:54:50;;;;;;;0.57;0.57;;;;;;;6.52;95.98;95486.97;5020426;28;20186;-79
2023/12/20 00:57:16;;;;;;;0.60;0.60;;;;;;;6.38;96.57;95482.94;5014628;28;20183;-79
2023/12/20 00:59:41;;;;;;;0.53;0.50;;;;;;;6.40;96.33;95482.81;5036018;28;20711;-79
2023/12/20 01:02:07;;;;;;;0.50;0.50;;;;;;;6.36;96.58;95482.25;5026687;28;20218;-78
2023/12/20 01:04:32;;;;;;;0.40;0.40;;;;;;;6.30;96.99;95479.31;5031157;28;20687;-79
2023/12/20 01:06:57;;;;;;;1.40;0.40;;;;;;;6.31;96.12;95483.53;5029102;28;20295;-79
2023/12/20 01:09:28;;;;;;;0.50;0.50;;;;;;;6.31;95.98;95486.94;5032051;28;20202;-79
2023/12/20 01:11:54;;;;;;;0.53;0.40;;;;;;;6.15;96.58;95487.34;5029039;28;20691;-79
2023/12/20 01:14:19;;;;;;;0.90;0.50;;;;;;;6.19;96.66;95495.66;5029449;28;20274;-78
2023/12/20 01:16:45;;;;;;;1.27;0.63;;;;;;;6.17;96.90;95497.53;5031454;28;20210;-79
2023/12/20 01:19:10;;;;;;;0.30;0.30;;;;;;;6.03;97.35;95490.06;5021927;28;20263;-79
2023/12/20 01:21:36;;;;;;;0.60;0.60;;;;;;;6.17;96.48;95492.38;5008241;28;20202;-78
2023/12/20 01:24:01;;;;;;;0.30;0.30;;;;;;;6.23;96.11;95494.47;5010790;28;20179;-79
2023/12/20 01:26:26;;;;;;;0.30;0.30;;;;;;;5.89;97.67;95494.50;5026888;28;20551;-79
2023/12/20 01:28:52;;;;;;;0.50;0.50;;;;;;;6.00;97.09;95495.47;5026451;28;20179;-78
2023/12/20 01:31:17;;;;;;;0.50;0.40;;;;;;;6.02;96.54;95496.19;5027089;28;20171;-78
2023/12/20 01:33:42;;;;;;;0.40;0.30;;;;;;;5.86;97.09;95499.09;5032901;28;20186;-79
2023/12/20 01:36:08;;;;;;;0.40;0.40;;;;;;;6.00;96.52;95491.13;5019530;28;20237;-79
2023/12/20 01:38:33;;;;;;;0.40;0.40;;;;;;;5.84;96.86;95496.66;5001986;28;20228;-79
2023/12/20 01:40:59;;;;;;;0.43;0.43;;;;;;;5.85;96.52;95490.56;5028939;28;20220;-79
2023/12/20 01:43:25;;;;;;;1.10;0.40;;;;;;;5.72;96.72;95495.00;5027624;28;20668;-79
2023/12/20 01:45:51;;;;;;;0.33;0.33;;;;;;;5.79;96.52;95492.78;5013565;28;20217;-79
2023/12/20 01:48:17;;;;;;;0.53;0.40;;;;;;;5.60;95.92;95493.41;5016324;28;20282;-80
2023/12/20 01:50:45;;;;;;;0.30;0.30;;;;;;;5.68;96.13;95496.19;5032644;28;20608;-79
2023/12/20 01:53:12;;;;;;;0.30;0.30;;;;;;;5.62;95.89;95502.63;5028005;28;20257;-79
2023/12/20 01:55:39;;;;;;;0.33;0.30;;;;;;;5.53;95.88;95497.38;5025863;28;20281;-79
2023/12/20 01:58:05;;;;;;;0.50;0.27;;;;;;;5.69;95.19;95497.84;5024754;28;20673;-80
2023/12/20 02:00:31;;;;;;;0.40;0.40;;;;;;;5.60;95.25;95496.78;5029437;28;20179;-79
2023/12/20 02:02:56;;;;;;;0.30;0.30;;;;;;;5.61;95.42;95498.44;5029091;28;20191;-79
2023/12/20 02:05:22;;;;;;;0.40;0.40;;;;;;;5.57;95.45;95498.78;5025973;28;20213;-80
2023/12/20 02:07:47;;;;;;;0.30;0.30;;;;;;;5.50;95.75;95502.78;5027271;28;20190;-79
2023/12/20 02:10:14;;;;;;;0.30;0.30;;;;;;;5.56;95.21;95512.59;5032668;28;20225;-79
2023/12/20 02:12:40;;;;;;;0.40;0.40;;;;;;;5.48;95.14;95504.63;5033886;28;20191;-79
2023/12/20 02:15:06;;;;;;;0.47;0.30;;;;;;;5.30;95.64;95507.69;5031608;28;20212;-80
2023/12/20 02:17:32;;;;;;;0.40;0.40;;;;;;;5.35;95.82;95512.47;5029203;28;20194;-80
2023/12/20 02:19:57;;;;;;;0.33;0.33;;;;;;;5.38;95.51;95507.09;5031848;28;20211;-79
2023/12/20 02:22:22;;;;;;;0.30;0.30;;;;;;;5.45;95.45;95520.31;5026584;28;20209;-79
2023/12/20 02:24:48;;;;;;;2.67;0.30;;;;;;;5.33;95.33;95517.75;5022193;28;20648;-79
2023/12/20 02:27:14;;;;;;;0.40;0.40;;;;;;;5.43;94.81;95506.75;5019160;28;20254;-79
2023/12/20 02:29:39;;;;;;;0.30;0.30;;;;;;;5.33;95.39;95512.59;5029913;28;20190;-80
2023/12/20 02:32:05;;;;;;;0.40;0.40;;;;;;;5.36;94.95;95516.69;5017476;28;20190;-80
2023/12/20 02:34:30;;;;;;;0.30;0.30;;;;;;;5.35;95.02;95517.63;5032573;28;20354;-79
2023/12/20 02:36:56;;;;;;;0.30;0.30;;;;;;;5.20;95.62;95522.16;5026659;28;20212;-80
2023/12/20 02:39:22;;;;;;;0.50;0.50;;;;;;;5.07;96.03;95521.47;5024898;28;20557;-79
2023/12/20 02:41:48;;;;;;;1.23;0.40;;;;;;;5.09;96.09;95519.59;5030021;28;20237;-79
2023/12/20 02:44:13;;;;;;;0.40;0.40;;;;;;;5.19;95.20;95522.28;5029272;28;20183;-79
2023/12/20 02:46:39;;;;;;;0.40;0.40;;;;;;;5.25;94.74;95527.00;5028738;28;20287;-79
2023/12/20 02:49:04;;;;;;;0.60;0.60;;;;;;;5.16;94.83;95523.34;5028376;28;20182;-79
2023/12/20 02:51:29;;;;;;;0.40;0.40;;;;;;;5.08;95.78;95517.94;5030066;28;20203;-78
2023/12/20 02:53:54;;;;;;;0.40;0.40;;;;;;;5.15;95.17;95514.00;5027020;28;20196;-79
2023/12/20 02:56:20;;;;;;;0.50;0.43;;;;;;;5.14;95.35;95521.84;5025554;28;20261;-78
2023/12/20 02:58:45;;;;;;;0.53;0.50;;;;;;;5.17;95.05;95526.75;5026315;28;20194;-80
2023/12/20 03:01:10;;;;;;;1.70;0.50;;;;;;;5.08;95.39;95523.09;5018219;28;20214;-80
2023/12/20 03:03:36;;;;;;;0.30;0.30;;;;;;;5.09;95.46;95524.72;5024293;28;20206;-80
2023/12/20 03:06:01;;;;;;;0.40;0.40;;;;;;;5.05;95.46;95529.31;5032038;28;20572;-80
2023/12/20 03:08:26;;;;;;;0.53;0.33;;;;;;;4.98;95.42;95529.88;5012152;28;20276;-80
2023/12/20 03:10:53;;;;;;;0.63;0.30;;;;;;;5.11;94.96;95533.16;5021094;28;20187;-79
2023/12/20 03:13:19;;;;;;;0.30;0.30;;;;;;;4.84;96.25;95542.00;5021181;28;20187;-80
2023/12/20 03:15:44;;;;;;;0.37;0.37;;;;;;;4.90;96.02;95530.44;5030399;28;20209;-79
2023/12/20 03:18:09;;;;;;;0.40;0.40;;;;;;;4.87;96.40;95535.81;5018945;28;20185;-80
2023/12/20 03:20:35;;;;;;;0.37;0.37;;;;;;;4.82;96.29;95537.91;5031898;28;20194;-79
2023/12/20 03:23:01;;;;;;;0.47;0.47;;;;;;;4.91;96.09;95544.94;5023384;28;20191;-79
2023/12/20 03:25:26;;;;;;;0.40;0.40;;;;;;;4.91;95.95;95542.38;5030432;28;20203;-79
2023/12/20 03:27:52;;;;;;;0.40;0.40;;;;;;;4.85;96.62;95545.38;5037660;28;20187;-79
2023/12/20 03:30:18;;;;;;;0.40;0.40;;;;;;;4.94;96.09;95541.31;5034526;28;20190;-80
2023/12/20 03:32:43;;;;;;;0.40;0.40;;;;;;;4.87;96.56;95535.00;5030215;28;20270;-80
2023/12/20 03:35:09;;;;;;;0.53;0.50;;;;;;;4.90;96.40;95542.47;5039798;28;20212;-80
2023/12/20 03:37:34;;;;;;;0.30;0.30;;;;;;;4.76;96.87;95544.31;5027245;28;20259;-80
2023/12/20 03:39:59;;;;;;;1.60;0.40;;;;;;;4.72;97.51;95536.94;5031383;28;20182;-79
2023/12/20 03:42:25;;;;;;;0.30;0.30;;;;;;;4.81;97.04;95542.22;5018663;28;20584;-79
2023/12/20 03:44:50;;;;;;;1.03;0.40;;;;;;;4.68;97.53;95533.78;5035220;28;20271;-79
2023/12/20 03:47:15;;;;;;;0.37;0.30;;;;;;;4.64;97.38;95529.78;5024469;28;20215;-80
2023/12/20 03:49:41;;;;;;;0.40;0.40;;;;;;;4.73;96.54;95529.09;5030358;28;20187;-80
2023/12/20 03:52:06;;;;;;;0.40;0.40;;;;;;;4.72;97.17;95531.78;5035666;28;20257;-80
2023/12/20 03:54:32;;;;;;;1.27;0.50;;;;;;;4.72;97.20;95542.06;5022091;28;20187;-80
2023/12/20 03:56:58;;;;;;;0.53;0.53;;;;;;;4.72;96.95;95540.31;5012328;28;20229;-80
2023/12/20 03:59:23;;;;;;;0.40;0.40;;;;;;;4.69;97.15;95545.69;5029413;28;20216;-80
2023/12/20 04:01:48;;;;;;;0.30;0.30;;;;;;;4.75;96.71;95544.41;5031405;28;20237;-79
2023/12/20 04:04:14;;;;;;;1.00;0.50;;;;;;;4.72;96.86;95532.59;5011914;28;20263;-80
2023/12/20 04:06:39;;;;;;;1.30;1.03;;;;;;;4.80;96.99;95535.44;5027975;28;20712;-79
2023/12/20 04:09:05;;;;;;;1.27;0.93;;;;;;;4.46;97.76;95547.34;5021720;28;20652;-80
2023/12/20 04:11:30;;;;;;;0.73;0.70;;;;;;;4.68;96.91;95536.34;5009979;28;20606;-79
2023/12/20 04:13:56;;;;;;;0.40;0.40;;;;;;;4.81;96.42;95546.56;5026683;28;20189;-79
2023/12/20 04:16:21;;;;;;;0.70;0.70;;;;;;;4.77;96.75;95547.69;5030204;28;20262;-80
2023/12/20 04:18:46;;;;;;;0.70;0.40;;;;;;;4.78;96.70;95547.59;5025323;28;20716;-80
2023/12/20 04:21:12;;;;;;;0.50;0.50;;;;;;;4.76;96.53;95548.63;5028838;28;20716;-79
2023/12/20 04:23:37;;;;;;;0.50;0.40;;;;;;;4.76;96.92;95552.00;5007892;28;20186;-80
2023/12/20 04:26:03;;;;;;;0.90;0.90;;;;;;;4.73;97.37;95548.84;5024024;28;20205;-80
2023/12/20 04:28:30;;;;;;;0.37;0.37;;;;;;;4.76;97.18;95546.06;5024612;28;20580;-79
2023/12/20 04:30:56;;;;;;;0.80;0.80;;;;;;;4.57;97.58;95554.28;5030123;28;20198;-79
2023/12/20 04:33:21;;;;;;;1.40;1.30;;;;;;;4.76;97.75;95564.88;5024976;28;20198;-80
2023/12/20 04:35:46;;;;;;;1.53;1.20;;;;;;;4.81;97.51;95557.66;5033957;28;20214;-80
2023/12/20 04:38:12;;;;;;;1.00;0.90;;;;;;;4.80;97.61;95561.16;5025198;28;20221;-80
2023/12/20 04:40:38;;;;;;;2.20;2.00;;;;;;;4.91;97.11;95559.56;5031007;28;20308;-79
2023/12/20 04:43:04;;;;;;;1.10;1.00;;;;;;;4.82;97.19;95561.06;5035250;28;20193;-80
2023/12/20 04:45:29;;;;;;;0.90;0.90;;;;;;;4.67;98.09;95569.88;5040607;28;20211;-79
2023/12/20 04:47:55;;;;;;;0.90;0.90;;;;;;;4.75;98.71;95568.38;5027708;28;20193;-80
2023/12/20 04:50:21;;;;;;;1.23;0.90;;;;;;;4.80;99.16;95573.22;5033083;28;20185;-79
2023/12/20 04:52:46;;;;;;;2.47;1.67;;;;;;;4.80;99.32;95568.06;5037078;28;20175;-79
2023/12/20 04:55:12;;;;;;;2.07;1.77;;;;;;;4.78;99.51;95563.03;5011132;28;20648;-79
2023/12/20 04:57:37;;;;;;;1.80;1.70;;;;;;;4.88;99.41;95570.09;5035238;28;20191;-79
2023/12/20 05:00:03;;;;;;;1.20;1.00;;;;;;;4.75;100.00;95567.56;5030449;28;20195;-79
2023/12/20 05:02:28;;;;;;;1.07;0.90;;;;;;;4.77;100.00;95574.28;5029363;28;20677;-80
2023/12/20 05:04:53;;;;;;;7.00;5.10;;;;;;;4.99;98.47;95577.84;5013234;28;20249;-79
2023/12/20 05:07:19;;;;;;;5.10;3.93;;;;;;;5.04;98.73;95573.19;5028966;28;20221;-80
2023/12/20 05:09:44;;;;;;;3.53;3.03;;;;;;;4.98;98.93;95581.34;5034166;28;20222;-79
2023/12/20 05:12:09;;;;;;;1.30;1.20;;;;;;;5.04;98.75;95588.63;5030097;28;20190;-79
2023/12/20 05:14:35;;;;;;;2.00;1.10;;;;;;;4.92;99.29;95590.31;5025772;28;20194;-79
2023/12/20 05:17:01;;;;;;;1.53;0.93;;;;;;;4.86;100.00;95595.94;5021360;28;20240;-79
2023/12/20 05:19:26;;;;;;;1.30;1.20;;;;;;;4.94;99.21;95592.78;5032604;28;20229;-79
2023/12/20 05:21:52;;;;;;;1.30;1.10;;;;;;;4.86;100.00;95597.66;5030633;28;20205;-79
2023/12/20 05:24:17;;;;;;;1.23;0.90;;;;;;;4.93;99.39;95591.97;5007239;28;20197;-80
2023/12/20 05:26:42;;;;;;;0.97;0.97;;;;;;;5.12;98.63;95606.88;5029587;28;20218;-80
2023/12/20 05:29:08;;;;;;;1.40;1.30;;;;;;;4.96;99.68;95609.75;5026942;28;20181;-79
2023/12/20 05:31:33;;;;;;;1.30;1.17;;;;;;;5.09;98.86;95609.69;5025624;28;20747;-80
2023/12/20 05:33:59;;;;;;;3.97;1.10;;;;;;;5.14;98.29;95615.31;5030409;28;20189;-80
2023/12/20 05:36:24;;;;;;;1.57;1.30;;;;;;;5.14;98.62;95612.75;5025460;28;20238;-78
2023/12/20 05:38:50;;;;;;;1.43;1.20;;;;;;;4.95;99.62;95613.28;5022579;28;20194;-79
2023/12/20 05:41:15;;;;;;;1.40;1.30;;;;;;;5.05;99.51;95616.81;5031896;28;20226;-80
2023/12/20 05:43:41;;;;;;;1.23;1.00;;;;;;;4.95;100.00;95626.16;5028038;28;20178;-80
2023/12/20 05:46:06;;;;;;;1.97;1.33;;;;;;;4.98;99.74;95625.91;5018681;28;20288;-79
2023/12/20 05:48:31;;;;;;;1.93;1.13;;;;;;;4.84;100.00;95624.31;5002226;28;20616;-79
2023/12/20 05:50:57;;;;;;;1.50;1.30;;;;;;;5.06;99.27;95636.47;5028799;28;20185;-80
2023/12/20 05:53:22;;;;;;;1.10;1.00;;;;;;;4.79;99.98;95635.91;5025712;28;20182;-77
2023/12/20 05:55:48;;;;;;;1.60;1.50;;;;;;;5.00;99.19;95641.25;5026851;28;20249;-78
2023/12/20 05:58:13;;;;;;;2.73;1.60;;;;;;;4.93;98.85;95653.72;5016811;28;20190;-78
2023/12/20 06:00:39;;;;;;;1.20;1.10;;;;;;;4.91;99.87;95657.34;5028892;28;20201;-78
2023/12/20 06:03:04;;;;;;;1.20;1.10;;;;;;;4.95;99.27;95666.50;5029546;28;20213;-79
2023/12/20 06:05:30;;;;;;;1.20;1.10;;;;;;;4.90;99.73;95658.28;5030194;28;20232;-79
2023/12/20 06:08:01;;;;;;;1.07;0.97;;;;;;;4.99;99.02;95652.47;5026925;28;20201;-80
2023/12/20 06:10:26;;;;;;;1.10;1.10;;;;;;;5.05;98.41;95657.19;5033377;28;20182;-80
2023/12/20 06:12:52;;;;;;;1.73;1.53;;;;;;;4.87;100.00;95658.50;5021458;28;20209;-80
2023/12/20 06:15:17;;;;;;;1.70;1.60;;;;;;;4.81;100.00;95662.34;5016683;28;20207;-78
2023/12/20 06:17:42;;;;;;;1.70;1.60;;;;;;;4.86;100.00;95662.84;5013764;28;20190;-79
2023/12/20 06:20:09;;;;;;;2.10;1.90;;;;;;;4.80;100.00;95668.41;5028085;28;20225;-79
2023/12/20 06:22:35;;;;;;;2.13;1.93;;;;;;;4.93;100.00;95666.59;5026420;28;20301;-79
2023/12/20 06:25:00;;;;;;;1.93;1.73;;;;;;;5.01;100.00;95671.19;5031392;28;20189;-79
2023/12/20 06:27:25;;;;;;;2.53;2.33;;;;;;;5.02;100.00;95668.50;5012275;28;20190;-78
2023/12/20 06:29:51;;;;;;;2.20;1.90;;;;;;;4.77;100.00;95671.19;5013452;28;20202;-79
2023/12/20 06:32:16;;;;;;;2.70;2.50;;;;;;;4.95;100.00;95680.19;5023558;28;20194;-79
2023/12/20 06:34:41;;;;;;;3.10;2.80;;;;;;;4.98;100.00;95684.28;5032029;28;20198;-79
2023/12/20 06:37:07;;;;;;;3.27;2.93;;;;;;;4.84;100.00;95680.94;5032174;28;20692;-79
2023/12/20 06:39:33;;;;;;;3.77;3.03;;;;;;;4.93;100.00;95684.59;5021463;28;20570;-79
2023/12/20 06:41:59;;;;;;;4.83;3.30;;;;;;;5.05;100.00;95675.19;5030972;28;20382;-79
2023/12/20 06:44:25;;;;;;;3.93;3.53;;;;;;;4.78;100.00;95691.69;5028446;28;20629;-79
2023/12/20 06:46:50;;;;;;;4.33;3.93;;;;;;;4.76;100.00;95701.22;5033596;28;20225;-79
2023/12/20 06:49:15;;;;;;;4.50;3.30;;;;;;;4.57;100.00;95707.78;5025382;28;20672;-79
2023/12/20 06:51:41;;;;;;;3.70;3.30;;;;;;;4.88;100.00;95712.44;5033612;28;20556;-78
2023/12/20 06:54:06;;;;;;;3.27;3.00;;;;;;;4.62;99.77;95706.53;5031621;28;20186;-78
2023/12/20 06:56:32;;;;;;;3.17;2.93;;;;;;;4.71;98.78;95723.91;5030612;28;20207;-79
2023/12/20 06:58:57;;;;;;;3.63;3.30;;;;;;;4.67;98.59;95722.47;5023905;28;20804;-79
2023/12/20 07:01:23;;;;;;;4.43;3.33;;;;;;;4.72;98.05;95717.00;5033435;28;20213;-79
2023/12/20 07:03:48;;;;;;;3.60;3.27;;;;;;;4.75;97.35;95712.47;5028874;28;20197;-78
2023/12/20 07:06:16;;;;;;;4.50;3.80;;;;;;;4.64;98.03;95712.41;5032475;28;20210;-78
2023/12/20 07:08:41;;;;;;;4.30;3.90;;;;;;;4.53;98.89;95722.63;5030980;28;20243;-78
2023/12/20 07:11:07;;;;;;;4.97;3.60;;;;;;;4.42;99.15;95722.56;5037184;28;20193;-79
2023/12/20 07:13:32;;;;;;;7.17;4.50;;;;;;;4.52;98.24;95736.41;5027473;28;20215;-79
2023/12/20 07:15:57;;;;;;;5.77;4.37;;;;;;;4.56;97.82;95742.97;5030898;28;20202;-78
2023/12/20 07:18:23;;;;;;;5.30;4.60;;;;;;;4.46;98.39;95740.22;5022174;28;20200;-78
2023/12/20 07:20:48;;;;;;;5.47;4.30;;;;;;;4.52;97.74;95739.81;5054165;28;20182;-79
2023/12/20 07:23:14;;;;;;;6.17;4.57;;;;;;;4.39;97.90;95743.31;5048441;28;20198;-78
2023/12/20 07:25:39;;;;;;;6.83;5.53;;;;;;;4.46;97.49;95753.06;5050788;28;20237;-78
2023/12/20 07:28:05;;;;;;;5.30;4.30;;;;;;;4.51;97.15;95745.06;5039686;28;20248;-78
2023/12/20 07:30:30;;;;;;;9.40;6.97;;;;;;;4.46;97.48;95753.06;5038091;28;20712;-79
2023/12/20 07:32:56;;;;;;;7.50;6.20;;;;;;;4.38;98.25;95746.81;5025513;28;20194;-79
2023/12/20 07:35:22;;;;;;;6.77;6.00;;;;;;;4.39;98.10;95761.31;5028378;28;20297;-79
2023/12/20 07:37:48;;;;;;;8.40;5.47;;;;;;;4.26;98.94;95771.63;5033316;28;20197;-78
2023/12/20 07:40:13;;;;;;;8.10;5.80;;;;;;;4.45;98.17;95756.56;5032805;28;20273;-78
2023/12/20 07:42:40;;;;;;;6.43;5.77;;;;;;;4.42;97.99;95763.69;5034558;28;20261;-79
2023/12/20 07:45:05;;;;;;;6.20;4.93;;;;;;;4.46;97.91;95762.53;5018065;28;20243;-78
2023/12/20 07:47:30;;;;;;;6.27;5.30;;;;;;;4.30;97.81;95756.78;5028583;28;20221;-78
2023/12/20 07:49:56;;;;;;;7.33;4.93;;;;;;;4.37;97.84;95765.75;5026340;28;20190;-79
2023/12/20 07:52:24;;;;;;;6.17;4.77;;;;;;;4.39;97.67;95772.41;5037695;28;20179;-78
2023/12/20 07:54:49;;;;;;;5.87;4.93;;;;;;;4.38;97.41;95769.94;5038187;28;20182;-78
2023/12/20 07:57:15;;;;;;;6.93;4.90;;;;;;;4.46;96.89;95777.97;5027499;28;20198;-79
2023/12/20 07:59:40;;;;;;;7.07;4.60;;;;;;;4.47;96.46;95779.59;5032111;28;20190;-78
2023/12/20 08:02:06;;;;;;;5.17;4.57;;;;;;;4.43;96.69;95783.34;5028014;28;20202;-78
2023/12/20 08:04:32;;;;;;;5.23;4.23;;;;;;;4.59;95.29;95778.75;5031376;28;20206;-78
2023/12/20 08:06:57;;;;;;;6.23;5.10;;;;;;;4.59;95.21;95793.38;5034628;28;20256;-78
2023/12/20 08:09:23;;;;;;;13.53;12.30;;;;;;;4.44;94.87;95800.41;5030142;28;20191;-78
2023/12/20 08:11:48;;;;;;;6.63;5.67;;;;;;;4.51;94.78;95801.63;5031491;28;20242;-78
2023/12/20 08:14:14;;;;;;;5.50;4.43;;;;;;;4.52;94.89;95805.84;5026299;28;20178;-78
2023/12/20 08:16:40;;;;;;;4.70;4.20;;;;;;;4.39;94.49;95807.59;5029482;28;20207;-78
2023/12/20 08:19:05;;;;;;;4.77;4.27;;;;;;;4.30;93.27;95809.03;5018073;28;20187;-78
2023/12/20 08:21:31;;;;;;;5.17;4.10;;;;;;;4.39;92.53;95803.28;5014921;28;20739;-78
2023/12/20 08:23:56;;;;;;;4.47;3.77;;;;;;;4.40;91.36;95798.94;5026050;28;20193;-78
2023/12/20 08:26:22;;;;;;;6.47;4.60;;;;;;;4.37;90.15;95809.44;5023910;28;20202;-77
2023/12/20 08:28:48;;;;;;;4.67;3.37;;;;;;;4.25;90.49;95801.66;5033011;28;20549;-78
2023/12/20 08:31:15;;;;;;;5.07;3.67;;;;;;;4.44;89.93;95806.38;5038295;28;20190;-78
2023/12/20 08:33:40;;;;;;;10.07;4.10;;;;;;;4.41;89.65;95800.59;5009871;28;20604;-78
2023/12/20 08:36:06;;;;;;;6.47;3.40;;;;;;;4.50;89.54;95808.50;5030495;28;20206;-78
2023/12/20 08:38:31;;;;;;;5.40;2.60;;;;;;;4.67;88.58;95815.06;5014802;28;20194;-77
2023/12/20 08:40:56;;;;;;;4.10;2.40;;;;;;;4.59;87.91;95819.91;5031088;28;20266;-78
2023/12/20 08:43:22;;;;;;;5.97;2.23;;;;;;;4.52;87.38;95816.97;5028277;28;20679;-78
2023/12/20 08:45:47;;;;;;;4.43;2.40;;;;;;;4.55;86.92;95818.50;5032694;28;20237;-78
2023/12/20 08:48:12;;;;;;;4.10;2.60;;;;;;;4.61;86.33;95818.09;5025161;28;20293;-78
2023/12/20 08:50:38;;;;;;;4.13;2.23;;;;;;;4.47;86.94;95820.75;5026316;28;20278;-78
2023/12/20 08:53:04;;;;;;;4.57;2.27;;;;;;;4.43;86.22;95825.28;5034280;28;20567;-78
2023/12/20 08:55:30;;;;;;;3.10;1.80;;;;;;;4.52;85.83;95822.09;5034143;28;20205;-79
2023/12/20 08:57:56;;;;;;;3.90;2.10;;;;;;;4.45;85.95;95822.63;5023880;28;20197;-77
2023/12/20 09:00:24;;;;;;;3.60;2.13;;;;;;;4.31;85.90;95820.13;5019561;28;20233;-78
2023/12/20 09:02:49;;;;;;;2.73;1.50;;;;;;;4.37;85.65;95814.59;5012309;28;20227;-78
2023/12/20 09:05:15;;;;;;;3.63;1.90;;;;;;;4.48;85.27;95817.25;5025072;28;20684;-77
2023/12/20 09:07:40;;;;;;;4.57;1.63;;;;;;;4.53;85.51;95818.59;5026598;28;20187;-78
2023/12/20 09:10:06;;;;;;;4.30;1.77;;;;;;;4.39;85.49;95810.16;5028284;28;20175;-78
2023/12/20 09:12:31;;;;;;;5.53;1.97;;;;;;;4.58;85.13;95807.97;5029271;28;20190;-77
2023/12/20 09:14:56;;;;;;;10.23;2.10;;;;;;;4.54;84.94;95809.13;5025888;28;20187;-77
2023/12/20 09:17:22;;;;;;;8.57;2.27;;;;;;;4.56;84.46;95796.97;5028544;28;20671;-78
2023/12/20 09:19:48;;;;;;;4.03;1.93;;;;;;;4.53;84.32;95799.78;5027979;28;20210;-77
2023/12/20 09:22:13;;;;;;;5.07;2.13;;;;;;;4.35;84.99;95798.44;5029251;28;20217;-78
2023/12/20 09:24:39;;;;;;;3.47;1.73;;;;;;;4.46;83.63;95801.94;5028017;28;20198;-78
2023/12/20 09:27:05;;;;;;;4.17;2.00;;;;;;;4.65;83.41;95796.34;5034374;28;20213;-78
2023/12/20 09:29:31;;;;;;;7.27;2.10;;;;;;;4.66;83.74;95807.47;5025353;28;20182;-78
2023/12/20 09:31:57;;;;;;;7.80;2.50;;;;;;;4.58;83.52;95812.31;5030651;28;20174;-78
2023/12/20 09:34:22;;;;;;;6.10;2.80;;;;;;;4.84;83.63;95808.78;5022688;28;20661;-78
2023/12/20 09:36:48;;;;;;;6.87;2.40;;;;;;;5.05;82.73;95814.19;5028320;28;20249;-77
2023/12/20 09:39:14;;;;;;;6.60;1.93;;;;;;;4.79;83.59;95811.69;5004954;28;20280;-78
2023/12/20 09:41:44;;;;;;;7.93;2.30;;;;;;;5.03;82.94;95808.31;5019542;28;20206;-78
2023/12/20 09:44:14;;;;;;;5.97;2.30;;;;;;;5.08;82.69;95812.22;5028890;28;20194;-78
2023/12/20 09:46:43;;;;;;;5.20;2.00;;;;;;;4.91;83.00;95811.75;5028726;28;20212;-77
2023/12/20 09:49:09;;;;;;;5.77;2.37;;;;;;;5.06;83.40;95813.25;5013409;28;20198;-78
2023/12/20 09:51:34;;;;;;;6.17;3.10;;;;;;;5.25;82.86;95810.22;5026817;28;20193;-78
2023/12/20 09:54:01;;;;;;;8.87;2.67;;;;;;;4.95;83.29;95811.44;5028939;28;20221;-78
2023/12/20 09:56:26;;;;;;;4.10;2.40;;;;;;;5.02;84.46;95814.38;5027854;28;20205;-78
2023/12/20 09:58:52;;;;;;;4.93;2.30;;;;;;;5.04;83.80;95822.84;5023075;28;20186;-78
2023/12/20 10:01:18;;;;;;;5.83;2.53;;;;;;;5.28;82.94;95810.81;5022956;28;20207;-78
2023/12/20 10:03:44;;;;;;;6.93;2.57;;;;;;;5.12;83.26;95810.22;5015925;28;20265;-77
2023/12/20 10:06:10;;;;;;;4.07;2.10;;;;;;;4.87;83.30;95803.44;5028725;28;20253;-78
2023/12/20 10:08:35;;;;;;;5.97;2.23;;;;;;;5.03;82.61;95821.16;5019343;28;20649;-77
2023/12/20 10:11:02;;;;;;;5.80;2.10;;;;;;;4.89;83.09;95816.19;5031440;28;20268;-78
2023/12/20 10:13:28;;;;;;;7.60;2.40;;;;;;;4.80;82.56;95813.31;5006428;28;20252;-77
2023/12/20 10:15:55;;;;;;;4.97;2.50;;;;;;;4.72;82.52;95804.47;5024862;28;20759;-77
2023/12/20 10:18:21;;;;;;;5.30;2.57;;;;;;;5.03;82.06;95803.16;5025463;28;20182;-77
2023/12/20 10:20:46;;;;;;;8.43;2.83;;;;;;;4.96;81.33;95794.25;5012948;28;20678;-77
2023/12/20 10:23:13;;;;;;;6.90;2.93;;;;;;;4.86;80.77;95790.66;5017821;28;20692;-77
2023/12/20 10:25:39;;;;;;;4.50;2.03;;;;;;;4.86;80.99;95791.50;5027404;28;20216;-78
2023/12/20 10:28:19;;;;;;;6.70;3.17;;;;;;;4.91;81.27;95788.59;5032490;28;20186;-78
2023/12/20 10:30:45;;;;;;;3.90;2.50;;;;;;;4.86;81.46;95782.94;5035360;28;20197;-77
2023/12/20 10:33:10;;;;;;;4.10;2.03;;;;;;;4.75;81.64;95779.34;5016164;28;20281;-77
2023/12/20 10:35:37;;;;;;;8.17;2.90;;;;;;;4.83;81.42;95781.41;5018521;28;20232;-77
2023/12/20 10:38:07;;;;;;;6.03;2.50;;;;;;;5.01;80.69;95787.00;5027465;28;20233;-78
2023/12/20 10:40:36;;;;;;;5.87;2.30;;;;;;;4.88;81.72;95778.53;5015518;28;20186;-78
2023/12/20 10:43:02;;;;;;;5.60;2.17;;;;;;;5.03;81.81;95777.41;5013645;28;20207;-77
2023/12/20 10:45:27;;;;;;;9.80;3.03;;;;;;;4.99;81.60;95781.97;5029217;28;20214;-78
2023/12/20 10:47:53;;;;;;;10.87;3.33;;;;;;;5.13;81.10;95781.00;5028862;28;20187;-78
2023/12/20 10:50:19;;;;;;;6.23;2.40;;;;;;;5.21;80.84;95773.56;5016217;28;20186;-77
2023/12/20 10:52:47;;;;;;;8.87;2.67;;;;;;;5.31;80.80;95784.03;5033859;28;20202;-78
2023/12/20 10:55:12;;;;;;;7.10;2.50;;;;;;;5.02;81.16;95781.75;5029307;28;20210;-77
2023/12/20 10:57:38;;;;;;;7.30;2.67;;;;;;;5.09;80.12;95772.66;5028182;28;20203;-78
2023/12/20 11:00:06;;;;;;;7.03;2.20;;;;;;;5.12;79.38;95771.63;5026778;28;20268;-77
2023/12/20 11:02:32;;;;;;;8.67;2.30;;;;;;;5.39;78.87;95774.81;5014959;28;20314;-78
2023/12/20 11:05:15;;;;;;;6.23;2.23;;;;;;;5.29;78.92;95786.69;5030884;28;20239;-78
2023/12/20 11:07:48;;;;;;;9.53;2.67;;;;;;;5.25;78.92;95769.81;5027482;28;20257;-78
2023/12/20 11:10:20;;;;;;;4.70;2.00;;;;;;;5.43;78.32;95762.53;5018201;28;20190;-77
2023/12/20 11:12:53;;;;;;;5.13;1.83;;;;;;;5.29;78.46;95773.00;5031943;28;20187;-78
2023/12/20 11:15:19;;;;;;;4.83;2.00;;;;;;;5.39;77.05;95761.94;5013486;28;20207;-78
2023/12/20 11:17:48;;;;;;;6.07;2.40;;;;;;;5.59;76.65;95768.22;5031820;28;20200;-78
2023/12/20 11:20:14;;;;;;;5.43;2.60;;;;;;;5.06;77.14;95760.03;5023932;28;20210;-78
2023/12/20 11:22:41;;;;;;;8.73;3.00;;;;;;;5.29;76.00;95753.22;5028238;28;20262;-77
2023/12/20 11:25:08;;;;;;;6.30;2.33;;;;;;;5.38;75.90;95751.72;5023303;28;20225;-78
2023/12/20 11:27:35;;;;;;;7.07;2.37;;;;;;;5.25;75.91;95751.81;5028085;28;20183;-78
2023/12/20 11:30:03;;;;;;;5.30;2.37;;;;;;;5.47;75.66;95750.25;5030062;28;20574;-78
2023/12/20 11:32:28;;;;;;;5.50;2.47;;;;;;;5.66;75.69;95741.09;5029583;28;20197;-78
2023/12/20 11:35:10;;;;;;;5.60;2.23;;;;;;;5.37;75.07;95747.53;5015270;28;20671;-78